sensor_id;sensor_type;location;lat;lon;timestamp;P1;durP1;ratioP1;P2;durP2;ratioP2
12848;SDS011;6493;50.928;7.172;2024-03-25T00:04:53;2.10;;;0.80;;
12848;SDS011;6493;50.928;7.172;2024-03-25T00:09:56;1.40;;;0.70;;
12848;SDS011;6493;50.928;7.172;2024-03-25T00:15:01;0.80;;;0.60;;
12848;SDS011;6493;50.928;7.172;2024-03-25T00:20:04;2.20;;;0.60;;
12848;SDS011;6493;50.928;7.172;2024-03-25T00:25:10;3.70;;;1.00;;
12848;SDS011;6493;50.928;7.172;2024-03-25T00:30:14;3.33;;;1.00;;
12848;SDS011;6493;50.928;7.172;2024-03-25T00:35:17;2.47;;;1.03;;
12848;SDS011;6493;50.928;7.172;2024-03-25T00:40:20;1.47;;;0.60;;
12848;SDS011;6493;50.928;7.172;2024-03-25T00:45:24;2.43;;;1.00;;
12848;SDS011;6493;50.928;7.172;2024-03-25T00:50:31;3.37;;;0.80;;
12848;SDS011;6493;50.928;7.172;2024-03-25T00:55:34;0.90;;;0.60;;
12848;SDS011;6493;50.928;7.172;2024-03-25T01:00:38;3.10;;;0.87;;
12848;SDS011;6493;50.928;7.172;2024-03-25T01:05:40;3.30;;;0.97;;
12848;SDS011;6493;50.928;7.172;2024-03-25T01:10:43;2.70;;;0.90;;
12848;SDS011;6493;50.928;7.172;2024-03-25T01:15:47;3.47;;;1.20;;
12848;SDS011;6493;50.928;7.172;2024-03-25T01:20:50;2.33;;;1.10;;
12848;SDS011;6493;50.928;7.172;2024-03-25T01:25:52;2.33;;;1.03;;
12848;SDS011;6493;50.928;7.172;2024-03-25T01:30:56;1.73;;;0.93;;
12848;SDS011;6493;50.928;7.172;2024-03-25T01:35:59;5.20;;;1.30;;
12848;SDS011;6493;50.928;7.172;2024-03-25T01:41:08;1.47;;;0.83;;
12848;SDS011;6493;50.928;7.172;2024-03-25T01:46:12;3.40;;;1.07;;
12848;SDS011;6493;50.928;7.172;2024-03-25T01:51:16;3.17;;;1.10;;
12848;SDS011;6493;50.928;7.172;2024-03-25T01:56:20;3.07;;;1.00;;
12848;SDS011;6493;50.928;7.172;2024-03-25T02:01:26;1.93;;;0.80;;
12848;SDS011;6493;50.928;7.172;2024-03-25T02:06:29;2.13;;;0.77;;
12848;SDS011;6493;50.928;7.172;2024-03-25T02:11:33;1.47;;;0.67;;
12848;SDS011;6493;50.928;7.172;2024-03-25T02:16:37;2.00;;;0.70;;
12848;SDS011;6493;50.928;7.172;2024-03-25T02:21:40;1.80;;;0.90;;
12848;SDS011;6493;50.928;7.172;2024-03-25T02:26:44;1.70;;;0.70;;
12848;SDS011;6493;50.928;7.172;2024-03-25T02:31:47;0.90;;;0.60;;
12848;SDS011;6493;50.928;7.172;2024-03-25T02:36:49;1.60;;;0.80;;
12848;SDS011;6493;50.928;7.172;2024-03-25T02:41:54;2.00;;;0.80;;
12848;SDS011;6493;50.928;7.172;2024-03-25T02:46:57;2.50;;;0.90;;
12848;SDS011;6493;50.928;7.172;2024-03-25T02:52:00;2.80;;;1.13;;
12848;SDS011;6493;50.928;7.172;2024-03-25T02:57:04;2.27;;;1.00;;
12848;SDS011;6493;50.928;7.172;2024-03-25T03:02:07;1.47;;;0.80;;
12848;SDS011;6493;50.928;7.172;2024-03-25T03:07:10;1.17;;;0.77;;
12848;SDS011;6493;50.928;7.172;2024-03-25T03:12:13;2.23;;;0.70;;
12848;SDS011;6493;50.928;7.172;2024-03-25T03:17:16;1.63;;;0.80;;
12848;SDS011;6493;50.928;7.172;2024-03-25T03:22:19;2.43;;;0.80;;
12848;SDS011;6493;50.928;7.172;2024-03-25T03:27:23;2.90;;;0.80;;
12848;SDS011;6493;50.928;7.172;2024-03-25T03:32:25;0.43;;;0.43;;
12848;SDS011;6493;50.928;7.172;2024-03-25T03:37:28;1.40;;;0.70;;
12848;SDS011;6493;50.928;7.172;2024-03-25T03:42:32;1.83;;;0.60;;
12848;SDS011;6493;50.928;7.172;2024-03-25T03:47:34;1.17;;;0.60;;
12848;SDS011;6493;50.928;7.172;2024-03-25T03:52:37;1.67;;;0.83;;
12848;SDS011;6493;50.928;7.172;2024-03-25T03:57:42;1.40;;;0.50;;
12848;SDS011;6493;50.928;7.172;2024-03-25T04:02:44;0.63;;;0.60;;
12848;SDS011;6493;50.928;7.172;2024-03-25T04:07:47;2.70;;;0.90;;
12848;SDS011;6493;50.928;7.172;2024-03-25T04:12:51;1.70;;;0.50;;
12848;SDS011;6493;50.928;7.172;2024-03-25T04:17:53;1.80;;;0.67;;
12848;SDS011;6493;50.928;7.172;2024-03-25T04:22:56;1.27;;;0.70;;
12848;SDS011;6493;50.928;7.172;2024-03-25T04:28:02;1.57;;;0.60;;
12848;SDS011;6493;50.928;7.172;2024-03-25T04:33:05;0.67;;;0.33;;
12848;SDS011;6493;50.928;7.172;2024-03-25T04:38:07;1.53;;;0.50;;
12848;SDS011;6493;50.928;7.172;2024-03-25T04:43:10;3.27;;;0.70;;
12848;SDS011;6493;50.928;7.172;2024-03-25T04:48:12;1.47;;;0.67;;
12848;SDS011;6493;50.928;7.172;2024-03-25T04:53:14;0.93;;;0.53;;
12848;SDS011;6493;50.928;7.172;2024-03-25T04:58:17;1.37;;;0.60;;
12848;SDS011;6493;50.928;7.172;2024-03-25T05:03:18;0.70;;;0.60;;
12848;SDS011;6493;50.928;7.172;2024-03-25T05:08:20;0.40;;;0.40;;
12848;SDS011;6493;50.928;7.172;2024-03-25T05:13:23;1.47;;;0.60;;
12848;SDS011;6493;50.928;7.172;2024-03-25T05:18:25;2.17;;;0.50;;
12848;SDS011;6493;50.928;7.172;2024-03-25T05:23:26;1.57;;;0.57;;
12848;SDS011;6493;50.928;7.172;2024-03-25T05:28:30;1.27;;;0.77;;
12848;SDS011;6493;50.928;7.172;2024-03-25T05:33:31;1.50;;;0.60;;
12848;SDS011;6493;50.928;7.172;2024-03-25T05:38:33;1.07;;;0.50;;
12848;SDS011;6493;50.928;7.172;2024-03-25T05:43:36;1.00;;;0.63;;
12848;SDS011;6493;50.928;7.172;2024-03-25T05:48:38;1.97;;;0.50;;
12848;SDS011;6493;50.928;7.172;2024-03-25T05:53:40;1.60;;;0.60;;
12848;SDS011;6493;50.928;7.172;2024-03-25T05:58:44;0.87;;;0.50;;
12848;SDS011;6493;50.928;7.172;2024-03-25T06:03:46;0.73;;;0.50;;
12848;SDS011;6493;50.928;7.172;2024-03-25T06:08:48;1.03;;;0.50;;
12848;SDS011;6493;50.928;7.172;2024-03-25T06:13:51;1.83;;;0.70;;
12848;SDS011;6493;50.928;7.172;2024-03-25T06:18:53;2.43;;;0.90;;
12848;SDS011;6493;50.928;7.172;2024-03-25T06:23:55;1.83;;;0.70;;
12848;SDS011;6493;50.928;7.172;2024-03-25T06:28:58;3.17;;;0.90;;
12848;SDS011;6493;50.928;7.172;2024-03-25T06:34:00;2.50;;;0.93;;
12848;SDS011;6493;50.928;7.172;2024-03-25T06:39:18;3.33;;;1.10;;
12848;SDS011;6493;50.928;7.172;2024-03-25T06:44:21;5.23;;;1.57;;
12848;SDS011;6493;50.928;7.172;2024-03-25T06:49:23;2.63;;;1.27;;
12848;SDS011;6493;50.928;7.172;2024-03-25T06:54:24;2.60;;;1.30;;
12848;SDS011;6493;50.928;7.172;2024-03-25T06:59:27;5.47;;;1.53;;
12848;SDS011;6493;50.928;7.172;2024-03-25T07:04:29;3.87;;;1.43;;
12848;SDS011;6493;50.928;7.172;2024-03-25T07:09:31;2.80;;;1.37;;
12848;SDS011;6493;50.928;7.172;2024-03-25T07:14:34;3.67;;;1.60;;
12848;SDS011;6493;50.928;7.172;2024-03-25T07:19:36;3.47;;;1.30;;
12848;SDS011;6493;50.928;7.172;2024-03-25T07:24:37;2.53;;;1.40;;
12848;SDS011;6493;50.928;7.172;2024-03-25T07:29:40;5.13;;;1.60;;
12848;SDS011;6493;50.928;7.172;2024-03-25T07:34:42;3.80;;;1.43;;
12848;SDS011;6493;50.928;7.172;2024-03-25T07:39:45;3.33;;;1.30;;
12848;SDS011;6493;50.928;7.172;2024-03-25T07:44:48;3.43;;;1.37;;
12848;SDS011;6493;50.928;7.172;2024-03-25T07:49:50;4.80;;;1.87;;
12848;SDS011;6493;50.928;7.172;2024-03-25T07:54:52;2.10;;;1.30;;
12848;SDS011;6493;50.928;7.172;2024-03-25T07:59:55;1.80;;;1.10;;
12848;SDS011;6493;50.928;7.172;2024-03-25T08:04:56;2.90;;;1.23;;
12848;SDS011;6493;50.928;7.172;2024-03-25T08:09:58;2.90;;;1.47;;
12848;SDS011;6493;50.928;7.172;2024-03-25T08:15:01;2.60;;;1.20;;
12848;SDS011;6493;50.928;7.172;2024-03-25T08:20:04;2.57;;;1.27;;
12848;SDS011;6493;50.928;7.172;2024-03-25T08:25:06;2.47;;;1.30;;
12848;SDS011;6493;50.928;7.172;2024-03-25T08:30:10;5.20;;;1.83;;
12848;SDS011;6493;50.928;7.172;2024-03-25T08:35:13;3.33;;;1.30;;
12848;SDS011;6493;50.928;7.172;2024-03-25T08:40:15;1.70;;;0.87;;
12848;SDS011;6493;50.928;7.172;2024-03-25T08:45:18;1.77;;;0.90;;
12848;SDS011;6493;50.928;7.172;2024-03-25T08:50:19;1.73;;;0.73;;
12848;SDS011;6493;50.928;7.172;2024-03-25T08:55:21;2.33;;;0.90;;
12848;SDS011;6493;50.928;7.172;2024-03-25T09:00:24;3.33;;;1.00;;
12848;SDS011;6493;50.928;7.172;2024-03-25T09:05:26;4.17;;;1.30;;
12848;SDS011;6493;50.928;7.172;2024-03-25T09:10:28;2.40;;;1.10;;
12848;SDS011;6493;50.928;7.172;2024-03-25T09:16:05;4.53;;;1.47;;
12848;SDS011;6493;50.928;7.172;2024-03-25T09:21:06;2.10;;;0.87;;
12848;SDS011;6493;50.928;7.172;2024-03-25T09:26:08;5.27;;;1.60;;
12848;SDS011;6493;50.928;7.172;2024-03-25T09:31:11;2.40;;;0.83;;
12848;SDS011;6493;50.928;7.172;2024-03-25T09:36:13;2.83;;;1.03;;
12848;SDS011;6493;50.928;7.172;2024-03-25T09:41:15;1.57;;;0.70;;
12848;SDS011;6493;50.928;7.172;2024-03-25T09:46:18;3.17;;;1.10;;
12848;SDS011;6493;50.928;7.172;2024-03-25T09:51:19;3.97;;;1.27;;
12848;SDS011;6493;50.928;7.172;2024-03-25T09:56:21;1.97;;;1.00;;
12848;SDS011;6493;50.928;7.172;2024-03-25T10:01:24;2.63;;;0.97;;
12848;SDS011;6493;50.928;7.172;2024-03-25T10:06:26;2.33;;;0.90;;
12848;SDS011;6493;50.928;7.172;2024-03-25T10:11:28;1.77;;;0.47;;
12848;SDS011;6493;50.928;7.172;2024-03-25T10:16:32;0.77;;;0.57;;
12848;SDS011;6493;50.928;7.172;2024-03-25T10:21:33;1.93;;;0.73;;
12848;SDS011;6493;50.928;7.172;2024-03-25T10:26:35;1.47;;;0.67;;
12848;SDS011;6493;50.928;7.172;2024-03-25T10:31:38;0.97;;;0.67;;
12848;SDS011;6493;50.928;7.172;2024-03-25T10:36:40;1.97;;;0.57;;
12848;SDS011;6493;50.928;7.172;2024-03-25T10:41:42;1.63;;;0.93;;
12848;SDS011;6493;50.928;7.172;2024-03-25T10:46:45;2.63;;;0.87;;
12848;SDS011;6493;50.928;7.172;2024-03-25T10:51:47;1.80;;;0.60;;
12848;SDS011;6493;50.928;7.172;2024-03-25T10:56:51;2.67;;;0.70;;
12848;SDS011;6493;50.928;7.172;2024-03-25T11:01:54;1.37;;;0.60;;
12848;SDS011;6493;50.928;7.172;2024-03-25T11:07:05;0.93;;;0.40;;
12848;SDS011;6493;50.928;7.172;2024-03-25T11:12:09;1.10;;;0.50;;
12848;SDS011;6493;50.928;7.172;2024-03-25T11:17:15;2.87;;;0.73;;
12848;SDS011;6493;50.928;7.172;2024-03-25T11:22:23;1.90;;;0.80;;
12848;SDS011;6493;50.928;7.172;2024-03-25T11:27:26;1.97;;;0.80;;
12848;SDS011;6493;50.928;7.172;2024-03-25T11:32:30;3.50;;;1.00;;
12848;SDS011;6493;50.928;7.172;2024-03-25T11:37:42;1.87;;;0.77;;
12848;SDS011;6493;50.928;7.172;2024-03-25T11:42:45;1.73;;;0.60;;
12848;SDS011;6493;50.928;7.172;2024-03-25T11:47:49;1.33;;;0.73;;
12848;SDS011;6493;50.928;7.172;2024-03-25T11:52:51;1.63;;;0.87;;
12848;SDS011;6493;50.928;7.172;2024-03-25T11:57:54;1.50;;;1.03;;
12848;SDS011;6493;50.928;7.172;2024-03-25T12:02:58;2.07;;;0.90;;
12848;SDS011;6493;50.928;7.172;2024-03-25T12:08:00;2.33;;;1.20;;
12848;SDS011;6493;50.928;7.172;2024-03-25T12:13:02;2.23;;;0.70;;
12848;SDS011;6493;50.928;7.172;2024-03-25T12:18:05;0.80;;;0.40;;
12848;SDS011;6493;50.928;7.172;2024-03-25T12:23:09;1.20;;;0.63;;
12848;SDS011;6493;50.928;7.172;2024-03-25T12:28:10;1.83;;;0.50;;
12848;SDS011;6493;50.928;7.172;2024-03-25T12:33:13;1.60;;;0.50;;
12848;SDS011;6493;50.928;7.172;2024-03-25T12:38:24;0.53;;;0.40;;
12848;SDS011;6493;50.928;7.172;2024-03-25T12:43:27;0.90;;;0.70;;
12848;SDS011;6493;50.928;7.172;2024-03-25T12:48:30;1.70;;;0.60;;
12848;SDS011;6493;50.928;7.172;2024-03-25T12:53:32;1.53;;;0.60;;
12848;SDS011;6493;50.928;7.172;2024-03-25T12:58:34;0.77;;;0.70;;
12848;SDS011;6493;50.928;7.172;2024-03-25T13:03:37;0.80;;;0.50;;
12848;SDS011;6493;50.928;7.172;2024-03-25T13:08:38;0.97;;;0.50;;
12848;SDS011;6493;50.928;7.172;2024-03-25T13:13:40;0.50;;;0.50;;
12848;SDS011;6493;50.928;7.172;2024-03-25T13:18:43;1.20;;;0.70;;
12848;SDS011;6493;50.928;7.172;2024-03-25T13:23:45;2.03;;;0.80;;
12848;SDS011;6493;50.928;7.172;2024-03-25T13:28:47;3.90;;;1.53;;
12848;SDS011;6493;50.928;7.172;2024-03-25T13:33:50;3.03;;;0.90;;
12848;SDS011;6493;50.928;7.172;2024-03-25T13:38:52;1.53;;;0.60;;
12848;SDS011;6493;50.928;7.172;2024-03-25T13:43:54;4.43;;;1.20;;
12848;SDS011;6493;50.928;7.172;2024-03-25T13:48:57;3.33;;;0.93;;
12848;SDS011;6493;50.928;7.172;2024-03-25T13:53:58;1.57;;;0.60;;
12848;SDS011;6493;50.928;7.172;2024-03-25T13:59:00;1.50;;;0.73;;
12848;SDS011;6493;50.928;7.172;2024-03-25T14:04:03;1.23;;;0.57;;
12848;SDS011;6493;50.928;7.172;2024-03-25T14:09:06;0.53;;;0.50;;
12848;SDS011;6493;50.928;7.172;2024-03-25T14:14:08;1.60;;;0.80;;
12848;SDS011;6493;50.928;7.172;2024-03-25T14:19:11;1.87;;;1.00;;
12848;SDS011;6493;50.928;7.172;2024-03-25T14:24:13;2.00;;;0.70;;
12848;SDS011;6493;50.928;7.172;2024-03-25T14:29:14;1.93;;;0.80;;
12848;SDS011;6493;50.928;7.172;2024-03-25T14:34:17;0.93;;;0.53;;
12848;SDS011;6493;50.928;7.172;2024-03-25T14:39:19;2.03;;;0.50;;
12848;SDS011;6493;50.928;7.172;2024-03-25T14:44:21;1.77;;;0.70;;
12848;SDS011;6493;50.928;7.172;2024-03-25T14:49:24;1.80;;;0.77;;
12848;SDS011;6493;50.928;7.172;2024-03-25T14:54:32;1.03;;;0.50;;
12848;SDS011;6493;50.928;7.172;2024-03-25T14:59:35;1.23;;;0.60;;
12848;SDS011;6493;50.928;7.172;2024-03-25T15:04:38;1.17;;;0.60;;
12848;SDS011;6493;50.928;7.172;2024-03-25T15:09:40;2.00;;;1.00;;
12848;SDS011;6493;50.928;7.172;2024-03-25T15:14:42;3.53;;;0.80;;
12848;SDS011;6493;50.928;7.172;2024-03-25T15:19:45;1.40;;;0.80;;
12848;SDS011;6493;50.928;7.172;2024-03-25T15:24:47;1.73;;;0.80;;
12848;SDS011;6493;50.928;7.172;2024-03-25T15:29:49;1.90;;;0.87;;
12848;SDS011;6493;50.928;7.172;2024-03-25T15:34:52;2.30;;;1.07;;
12848;SDS011;6493;50.928;7.172;2024-03-25T15:39:54;1.63;;;0.60;;
12848;SDS011;6493;50.928;7.172;2024-03-25T15:44:56;1.23;;;0.60;;
12848;SDS011;6493;50.928;7.172;2024-03-25T15:49:59;3.93;;;0.77;;
12848;SDS011;6493;50.928;7.172;2024-03-25T15:55:01;1.07;;;0.70;;
12848;SDS011;6493;50.928;7.172;2024-03-25T16:00:04;2.77;;;0.93;;
12848;SDS011;6493;50.928;7.172;2024-03-25T16:05:08;2.60;;;0.70;;
12848;SDS011;6493;50.928;7.172;2024-03-25T16:10:10;2.57;;;0.90;;
12848;SDS011;6493;50.928;7.172;2024-03-25T16:15:11;2.57;;;0.80;;
12848;SDS011;6493;50.928;7.172;2024-03-25T16:20:15;2.73;;;0.93;;
12848;SDS011;6493;50.928;7.172;2024-03-25T16:25:16;1.33;;;0.70;;
12848;SDS011;6493;50.928;7.172;2024-03-25T16:30:18;2.67;;;1.00;;
12848;SDS011;6493;50.928;7.172;2024-03-25T16:35:22;2.23;;;0.70;;
12848;SDS011;6493;50.928;7.172;2024-03-25T16:40:24;1.43;;;0.70;;
12848;SDS011;6493;50.928;7.172;2024-03-25T16:45:25;2.30;;;0.90;;
12848;SDS011;6493;50.928;7.172;2024-03-25T16:50:28;1.33;;;0.73;;
12848;SDS011;6493;50.928;7.172;2024-03-25T16:55:30;2.07;;;0.80;;
12848;SDS011;6493;50.928;7.172;2024-03-25T17:00:32;2.70;;;0.80;;
12848;SDS011;6493;50.928;7.172;2024-03-25T17:05:35;2.70;;;0.67;;
12848;SDS011;6493;50.928;7.172;2024-03-25T17:10:38;0.83;;;0.50;;
12848;SDS011;6493;50.928;7.172;2024-03-25T17:15:40;1.10;;;0.63;;
12848;SDS011;6493;50.928;7.172;2024-03-25T17:20:44;1.97;;;0.90;;
12848;SDS011;6493;50.928;7.172;2024-03-25T17:25:45;1.60;;;0.90;;
12848;SDS011;6493;50.928;7.172;2024-03-25T17:30:47;0.90;;;0.60;;
12848;SDS011;6493;50.928;7.172;2024-03-25T17:35:50;0.93;;;0.50;;
12848;SDS011;6493;50.928;7.172;2024-03-25T17:40:52;0.43;;;0.40;;
12848;SDS011;6493;50.928;7.172;2024-03-25T17:45:53;1.17;;;0.70;;
12848;SDS011;6493;50.928;7.172;2024-03-25T17:50:57;1.67;;;0.80;;
12848;SDS011;6493;50.928;7.172;2024-03-25T17:56:00;3.23;;;0.90;;
12848;SDS011;6493;50.928;7.172;2024-03-25T18:01:02;1.67;;;1.03;;
12848;SDS011;6493;50.928;7.172;2024-03-25T18:06:05;1.33;;;0.80;;
12848;SDS011;6493;50.928;7.172;2024-03-25T18:11:07;1.93;;;0.70;;
12848;SDS011;6493;50.928;7.172;2024-03-25T18:16:09;1.23;;;0.80;;
12848;SDS011;6493;50.928;7.172;2024-03-25T18:21:12;2.77;;;1.00;;
12848;SDS011;6493;50.928;7.172;2024-03-25T18:26:13;1.73;;;0.90;;
12848;SDS011;6493;50.928;7.172;2024-03-25T18:31:15;1.27;;;0.83;;
12848;SDS011;6493;50.928;7.172;2024-03-25T18:36:18;1.50;;;0.90;;
12848;SDS011;6493;50.928;7.172;2024-03-25T18:41:20;0.67;;;0.60;;
12848;SDS011;6493;50.928;7.172;2024-03-25T18:46:22;1.17;;;0.80;;
12848;SDS011;6493;50.928;7.172;2024-03-25T18:51:25;1.50;;;0.70;;
12848;SDS011;6493;50.928;7.172;2024-03-25T18:56:26;1.20;;;0.73;;
12848;SDS011;6493;50.928;7.172;2024-03-25T19:01:28;1.77;;;0.77;;
12848;SDS011;6493;50.928;7.172;2024-03-25T19:06:31;2.63;;;1.30;;
12848;SDS011;6493;50.928;7.172;2024-03-25T19:11:33;1.90;;;0.90;;
12848;SDS011;6493;50.928;7.172;2024-03-25T19:16:35;1.90;;;1.03;;
12848;SDS011;6493;50.928;7.172;2024-03-25T19:21:38;3.90;;;1.27;;
12848;SDS011;6493;50.928;7.172;2024-03-25T19:26:40;2.77;;;1.27;;
12848;SDS011;6493;50.928;7.172;2024-03-25T19:31:42;3.30;;;1.33;;
12848;SDS011;6493;50.928;7.172;2024-03-25T19:36:45;2.93;;;1.47;;
12848;SDS011;6493;50.928;7.172;2024-03-25T19:41:47;3.30;;;1.00;;
12848;SDS011;6493;50.928;7.172;2024-03-25T19:46:48;2.00;;;1.23;;
12848;SDS011;6493;50.928;7.172;2024-03-25T19:51:51;3.00;;;1.07;;
12848;SDS011;6493;50.928;7.172;2024-03-25T19:56:53;2.23;;;1.20;;
12848;SDS011;6493;50.928;7.172;2024-03-25T20:01:55;2.63;;;1.20;;
12848;SDS011;6493;50.928;7.172;2024-03-25T20:06:58;3.00;;;1.10;;
12848;SDS011;6493;50.928;7.172;2024-03-25T20:12:00;2.53;;;1.00;;
12848;SDS011;6493;50.928;7.172;2024-03-25T20:17:01;2.83;;;1.10;;
12848;SDS011;6493;50.928;7.172;2024-03-25T20:22:05;2.10;;;0.87;;
12848;SDS011;6493;50.928;7.172;2024-03-25T20:27:06;0.93;;;0.80;;
12848;SDS011;6493;50.928;7.172;2024-03-25T20:32:08;2.20;;;0.90;;
12848;SDS011;6493;50.928;7.172;2024-03-25T20:37:11;2.93;;;1.20;;
12848;SDS011;6493;50.928;7.172;2024-03-25T20:42:13;2.73;;;1.00;;
12848;SDS011;6493;50.928;7.172;2024-03-25T20:47:14;4.87;;;1.60;;
12848;SDS011;6493;50.928;7.172;2024-03-25T20:52:17;3.07;;;1.00;;
12848;SDS011;6493;50.928;7.172;2024-03-25T20:57:19;1.77;;;0.70;;
12848;SDS011;6493;50.928;7.172;2024-03-25T21:02:21;2.30;;;1.03;;
12848;SDS011;6493;50.928;7.172;2024-03-25T21:07:24;2.93;;;1.00;;
12848;SDS011;6493;50.928;7.172;2024-03-25T21:12:26;1.30;;;0.80;;
12848;SDS011;6493;50.928;7.172;2024-03-25T21:17:27;3.03;;;1.37;;
12848;SDS011;6493;50.928;7.172;2024-03-25T21:22:30;2.53;;;1.10;;
12848;SDS011;6493;50.928;7.172;2024-03-25T21:27:32;3.30;;;1.00;;
12848;SDS011;6493;50.928;7.172;2024-03-25T21:32:34;3.60;;;1.30;;
12848;SDS011;6493;50.928;7.172;2024-03-25T21:37:37;3.40;;;1.00;;
12848;SDS011;6493;50.928;7.172;2024-03-25T21:42:39;2.50;;;1.10;;
12848;SDS011;6493;50.928;7.172;2024-03-25T21:47:41;3.23;;;1.17;;
12848;SDS011;6493;50.928;7.172;2024-03-25T21:52:44;3.50;;;0.90;;
12848;SDS011;6493;50.928;7.172;2024-03-25T21:57:45;2.97;;;1.10;;
12848;SDS011;6493;50.928;7.172;2024-03-25T22:02:47;2.80;;;1.30;;
12848;SDS011;6493;50.928;7.172;2024-03-25T22:07:50;2.13;;;1.03;;
12848;SDS011;6493;50.928;7.172;2024-03-25T22:12:52;3.63;;;1.10;;
12848;SDS011;6493;50.928;7.172;2024-03-25T22:17:54;2.23;;;1.23;;
12848;SDS011;6493;50.928;7.172;2024-03-25T22:22:57;1.97;;;1.10;;
12848;SDS011;6493;50.928;7.172;2024-03-25T22:27:58;2.00;;;1.10;;
12848;SDS011;6493;50.928;7.172;2024-03-25T22:33:00;2.43;;;0.87;;
12848;SDS011;6493;50.928;7.172;2024-03-25T22:38:03;3.00;;;1.60;;
12848;SDS011;6493;50.928;7.172;2024-03-25T22:43:05;1.93;;;1.00;;
12848;SDS011;6493;50.928;7.172;2024-03-25T22:48:07;1.67;;;0.93;;
12848;SDS011;6493;50.928;7.172;2024-03-25T22:53:10;2.10;;;0.87;;
12848;SDS011;6493;50.928;7.172;2024-03-25T22:58:11;2.53;;;1.10;;
12848;SDS011;6493;50.928;7.172;2024-03-25T23:03:13;4.43;;;1.10;;
12848;SDS011;6493;50.928;7.172;2024-03-25T23:08:16;2.43;;;1.20;;
12848;SDS011;6493;50.928;7.172;2024-03-25T23:13:18;2.90;;;1.37;;
12848;SDS011;6493;50.928;7.172;2024-03-25T23:18:20;2.60;;;0.90;;
12848;SDS011;6493;50.928;7.172;2024-03-25T23:23:23;1.77;;;0.90;;
12848;SDS011;6493;50.928;7.172;2024-03-25T23:28:24;3.90;;;1.30;;
12848;SDS011;6493;50.928;7.172;2024-03-25T23:33:27;3.50;;;1.30;;
12848;SDS011;6493;50.928;7.172;2024-03-25T23:38:30;1.50;;;1.13;;
12848;SDS011;6493;50.928;7.172;2024-03-25T23:43:31;1.63;;;0.90;;
12848;SDS011;6493;50.928;7.172;2024-03-25T23:48:33;3.40;;;1.47;;
12848;SDS011;6493;50.928;7.172;2024-03-25T23:53:36;2.87;;;1.40;;
12848;SDS011;6493;50.928;7.172;2024-03-25T23:58:38;2.17;;;1.40;;
